Airfield :
LOGIN :

Register | Disclaimer

   EN    FR    IT 

 










Legend :    VFR   Marginal VFR   IFR   Intensive IFR   Very Intensive IFR
Visi :
Ceiling :
>= 8 km
>= 3000ft
5 to 8 km
1000 to 3000 ft
1500m to 5 km
500 to 1000 ft
800 to 1500m
200 to 500 ft
< 800m
< 200 ft
Symbols :   Thunderstorms  Fog  Heavy snow  Heavy precipitations  Wind > 20 kt
SIGMETs :     Misc.  Thunderstorms  Icing  Turbulence  Mountain Waves  Volcanic Ashes






- Airport Elevation : 157 ft
- IATA code : LIL


LFQQ - Lille Lesquin

CURRENT METAR :
  • 241330Z AUTO 20003KT 170V270 7000 OVC011 01/M01 Q1023 NOSIG

EXPIRED METARs :
  • 241300Z AUTO 12003KT 7000 OVC011 01/M01 Q1023 NOSIG
  • 241230Z AUTO VRB02KT 7000 OVC011 01/M01 Q1024 NOSIG
  • 241200Z AUTO VRB02KT 7000 OVC010 01/M01 Q1024 NOSIG
  • 241130Z AUTO 19004KT 130V220 7000 OVC010 01/M01 Q1024 NOSIG
  • 241100Z AUTO 17003KT 140V200 6000 OVC010 01/M00 Q1024 NOSIG

TAF TAF LFQQ
Valid from the 24 at 12:00 until the 25 at 18:00 UTC


241100Z 2412/2518 17003KT 7000 OVC010
BECMG 2416/2419 1500 BR OVC003
PROB40 2502/2510 0300 FG VV///
BECMG 2510/2513 4000 BR OVC004
ATIS : +33 3 20 16 19 54



MET'MAP, your aeronautical weather chart ! - Copyright ORBIFLY December 2007 - Disclaimer

ORBIFLY MET'MAP TEAM :

Programming & Development : Alexandra Zaïnal
Concept & original design : Baudouin d'Aumeries
Assistance for programming : Marc-Olivier Méhu
Technical & hardware support : Manuel Goepfert

Contact : metmap@orbifly.com




SOURCES & CREDITS :

   NOAA